PPL, ces minutes fugaces ne.

PPL, ces minutes fugaces ne.

PPL, ces minutes fugaces ne quitteront jamais ma mémoire et feront parties de ces rêves de Pilote les plus chéris de ma vie 😉
Merci à Stéphane pour l’accueil, nos échanges et ton professionnalisme et un grand merci à Renan ces instants de partage magnifiques !

Poupard Pascal

Voir toute les actualités.

Avion / Hélicoptère / Simulateur*
Avion
METAR :

LFQA 231400Z AUTO VRB04KT CAVOK 24/12 Q1019


vue en direct sur l'aérodrome
facturation mentions légales politique de confidentialité
Cochet Concept
cx